Time;durP1;ratioP1;P1;durP2;ratioP2;P2;SDS_P1;SDS_P2;PMS_P1;PMS_P2;Temp;Humidity;BMP_temperature;BMP_pressure;BME280_temperature;BME280_humidity;BME280_pressure;Samples;Min_cycle;Max_cycle;Signal;HPM_P1;HPM_P2
2022/10/01 00:01:06;;;;;;;3.60;3.30;;;;;;;;;;612461;234;26605;-68
2022/10/01 00:03:35;;;;;;;3.90;3.45;;;;;;;;;;612442;234;26640;-67
2022/10/01 00:06:05;;;;;;;3.67;3.47;;;;;;;;;;612475;234;26885;-68
2022/10/01 00:08:34;;;;;;;3.85;3.55;;;;;;;;;;612487;234;26852;-67
2022/10/01 00:11:08;;;;;;;4.12;3.72;;;;;;;;;;612475;234;26618;-67
2022/10/01 00:13:37;;;;;;;3.67;3.30;;;;;;;;;;612800;235;26795;-67
2022/10/01 00:16:07;;;;;;;3.60;3.30;;;;;;;;;;612847;234;26594;-67
2022/10/01 00:18:35;;;;;;;3.15;2.95;;;;;;;;;;612857;235;26549;-67
2022/10/01 00:21:05;;;;;;;3.65;3.35;;;;;;;;;;612785;235;26550;-68
2022/10/01 00:23:34;;;;;;;3.95;3.65;;;;;;;;;;612675;235;26865;-68
2022/10/01 00:26:07;;;;;;;3.72;3.40;;;;;;;;;;613774;232;26597;-69
2022/10/01 00:28:35;;;;;;;3.50;3.20;;;;;;;;;;613570;234;26841;-68
2022/10/01 00:31:05;;;;;;;4.10;3.80;;;;;;;;;;613237;234;26531;-68
2022/10/01 00:33:33;;;;;;;4.12;3.72;;;;;;;;;;613232;234;26587;-68
2022/10/01 00:36:04;;;;;;;4.22;3.75;;;;;;;;;;613070;233;26645;-68
2022/10/01 00:38:32;;;;;;;4.22;3.92;;;;;;;;;;613054;233;26619;-68
2022/10/01 00:41:00;;;;;;;4.45;4.05;;;;;;;;;;613020;234;26606;-68
2022/10/01 00:43:30;;;;;;;4.75;4.35;;;;;;;;;;612848;233;26599;-69
2022/10/01 00:45:59;;;;;;;4.32;3.92;;;;;;;;;;612686;228;26572;-69
2022/10/01 00:48:28;;;;;;;4.57;4.18;;;;;;;;;;612977;234;26551;-71
2022/10/01 00:50:57;;;;;;;8.55;4.70;;;;;;;;;;613130;233;26531;-67
2022/10/01 00:53:26;;;;;;;11.55;4.65;;;;;;;;;;613123;234;26565;-66
2022/10/01 00:55:55;;;;;;;7.68;4.40;;;;;;;;;;612961;233;26798;-68
2022/10/01 00:58:24;;;;;;;9.95;4.70;;;;;;;;;;612666;233;26578;-68
2022/10/01 01:00:53;;;;;;;3.50;3.20;;;;;;;;;;612452;233;26785;-68
2022/10/01 01:03:21;;;;;;;3.60;3.30;;;;;;;;;;612245;234;26657;-68
2022/10/01 01:05:50;;;;;;;4.10;3.65;;;;;;;;;;612265;228;26605;-68
2022/10/01 01:08:19;;;;;;;3.65;3.35;;;;;;;;;;612382;228;26756;-68
2022/10/01 01:10:55;;;;;;;4.28;3.72;;;;;;;;;;612340;228;26632;-67
2022/10/01 01:13:24;;;;;;;4.10;3.70;;;;;;;;;;612100;235;26970;-69
2022/10/01 01:15:54;;;;;;;3.42;3.22;;;;;;;;;;612175;235;26833;-68
2022/10/01 01:18:22;;;;;;;5.10;3.75;;;;;;;;;;612163;235;26802;-68
2022/10/01 01:20:52;;;;;;;3.62;3.33;;;;;;;;;;612270;235;26560;-67
2022/10/01 01:23:21;;;;;;;5.37;3.80;;;;;;;;;;611926;235;26580;-67
2022/10/01 01:26:06;;;;;;;3.85;3.58;;;;;;;;;;612206;235;26616;-67
2022/10/01 01:28:36;;;;;;;5.05;3.33;;;;;;;;;;612182;235;26983;-67
2022/10/01 01:31:08;;;;;;;4.05;3.72;;;;;;;;;;612276;235;26615;-68
2022/10/01 01:33:37;;;;;;;5.28;3.45;;;;;;;;;;612355;235;26636;-67
2022/10/01 01:36:06;;;;;;;3.65;3.35;;;;;;;;;;612617;232;26629;-67
2022/10/01 01:38:37;;;;;;;3.90;3.60;;;;;;;;;;613736;234;26582;-67
2022/10/01 01:41:05;;;;;;;3.90;3.47;;;;;;;;;;613520;234;26539;-67
2022/10/01 01:43:34;;;;;;;3.80;3.47;;;;;;;;;;613704;233;26790;-67
2022/10/01 01:46:03;;;;;;;4.75;3.58;;;;;;;;;;613256;233;26929;-67
2022/10/01 01:48:35;;;;;;;4.15;3.80;;;;;;;;;;612998;234;26620;-67
2022/10/01 01:51:02;;;;;;;4.68;3.65;;;;;;;;;;612896;234;26826;-67
2022/10/01 01:53:31;;;;;;;4.10;3.80;;;;;;;;;;612834;234;26980;-67
2022/10/01 01:55:59;;;;;;;3.95;3.65;;;;;;;;;;612826;233;26625;-67
2022/10/01 01:58:29;;;;;;;4.05;3.65;;;;;;;;;;612782;234;26593;-67
2022/10/01 02:00:57;;;;;;;4.07;3.78;;;;;;;;;;612689;233;26572;-68
2022/10/01 02:03:28;;;;;;;3.83;3.60;;;;;;;;;;612742;234;26556;-67
2022/10/01 02:06:10;;;;;;;3.97;3.58;;;;;;;;;;612687;234;26593;-68
2022/10/01 02:08:55;;;;;;;4.15;3.83;;;;;;;;;;604741;233;26639;-67
2022/10/01 02:11:25;;;;;;;4.00;3.65;;;;;;;;;;612420;235;26567;-67
2022/10/01 02:13:58;;;;;;;4.35;3.92;;;;;;;;;;612570;228;26565;-67
2022/10/01 02:16:27;;;;;;;4.22;3.92;;;;;;;;;;615360;234;26584;-67
2022/10/01 02:19:00;;;;;;;3.45;3.17;;;;;;;;;;615168;234;26581;-67
2022/10/01 02:21:30;;;;;;;4.03;3.72;;;;;;;;;;615445;234;26578;-67
2022/10/01 02:24:00;;;;;;;4.28;3.97;;;;;;;;;;615379;234;26592;-67
2022/10/01 02:26:29;;;;;;;3.62;3.35;;;;;;;;;;615414;234;26798;-67
2022/10/01 02:28:58;;;;;;;3.53;3.33;;;;;;;;;;615516;234;26569;-67
2022/10/01 02:31:26;;;;;;;3.67;3.37;;;;;;;;;;615485;234;26573;-67
2022/10/01 02:33:55;;;;;;;5.45;4.10;;;;;;;;;;615569;234;26838;-67
2022/10/01 02:36:24;;;;;;;4.30;3.90;;;;;;;;;;615481;234;26596;-67
2022/10/01 02:38:53;;;;;;;4.15;3.85;;;;;;;;;;615621;233;26802;-67
2022/10/01 02:41:22;;;;;;;4.40;4.07;;;;;;;;;;615596;234;26573;-67
2022/10/01 02:43:52;;;;;;;3.65;3.35;;;;;;;;;;615335;234;26575;-67
2022/10/01 02:46:20;;;;;;;3.40;3.20;;;;;;;;;;615736;234;26806;-67
2022/10/01 02:48:50;;;;;;;4.00;3.67;;;;;;;;;;616823;231;26550;-67
2022/10/01 02:51:18;;;;;;;3.60;3.22;;;;;;;;;;617281;232;26542;-67
2022/10/01 02:53:47;;;;;;;3.67;3.37;;;;;;;;;;616343;228;26575;-67
2022/10/01 02:57:21;;;;;;;3.47;3.20;;;;;;;;;;616291;232;26571;-67
2022/10/01 02:58:47;;;;;;;3.33;3.12;;;;;;;;;;614308;233;26561;-67
2022/10/01 03:01:15;;;;;;;3.40;3.10;;;;;;;;;;616194;233;26559;-68
2022/10/01 03:03:44;;;;;;;3.40;3.20;;;;;;;;;;616191;233;26591;-68
2022/10/01 03:06:13;;;;;;;3.50;3.30;;;;;;;;;;616106;233;26827;-68
2022/10/01 03:08:42;;;;;;;3.50;3.20;;;;;;;;;;615960;233;26624;-68
2022/10/01 03:11:11;;;;;;;3.67;3.37;;;;;;;;;;615769;227;26842;-67
2022/10/01 03:13:39;;;;;;;3.20;3.00;;;;;;;;;;615828;233;26624;-67
2022/10/01 03:16:08;;;;;;;3.50;3.30;;;;;;;;;;615842;233;26659;-67
2022/10/01 03:18:37;;;;;;;3.92;3.62;;;;;;;;;;616008;233;26814;-67
2022/10/01 03:21:06;;;;;;;3.42;3.20;;;;;;;;;;615916;233;26597;-67
2022/10/01 03:23:35;;;;;;;3.47;3.17;;;;;;;;;;615823;233;27187;-67
2022/10/01 03:26:04;;;;;;;5.00;3.55;;;;;;;;;;615625;234;26576;-67
2022/10/01 03:28:32;;;;;;;3.15;2.95;;;;;;;;;;615670;234;26802;-67
2022/10/01 03:31:04;;;;;;;3.45;3.25;;;;;;;;;;615579;234;26607;-67
2022/10/01 03:33:34;;;;;;;3.60;3.30;;;;;;;;;;615626;234;26588;-67
2022/10/01 03:36:03;;;;;;;3.70;3.40;;;;;;;;;;615610;233;26592;-67
2022/10/01 03:38:31;;;;;;;3.80;3.50;;;;;;;;;;615654;228;26577;-67
2022/10/01 03:41:00;;;;;;;3.33;3.10;;;;;;;;;;615608;234;26607;-68
2022/10/01 03:43:29;;;;;;;3.25;3.05;;;;;;;;;;615681;234;26599;-68
2022/10/01 03:45:58;;;;;;;3.15;2.95;;;;;;;;;;615659;234;26575;-68
2022/10/01 03:48:27;;;;;;;3.50;3.20;;;;;;;;;;615636;234;26861;-68
2022/10/01 03:50:56;;;;;;;3.22;3.03;;;;;;;;;;615617;233;26559;-68
2022/10/01 03:53:26;;;;;;;3.78;3.58;;;;;;;;;;615757;233;26862;-67
2022/10/01 03:55:53;;;;;;;3.70;3.40;;;;;;;;;;615575;234;26572;-67
2022/10/01 03:58:22;;;;;;;3.30;3.10;;;;;;;;;;615749;234;26572;-68
2022/10/01 04:00:53;;;;;;;3.80;3.50;;;;;;;;;;617099;231;26620;-67
2022/10/01 04:03:20;;;;;;;3.72;3.40;;;;;;;;;;616808;232;26588;-67
2022/10/01 04:05:49;;;;;;;3.37;3.10;;;;;;;;;;616591;232;26566;-68
2022/10/01 04:08:18;;;;;;;3.58;3.33;;;;;;;;;;616514;233;26564;-67
2022/10/01 04:10:48;;;;;;;3.85;3.53;;;;;;;;;;616248;233;26789;-67
2022/10/01 04:13:15;;;;;;;3.28;3.08;;;;;;;;;;616142;233;26583;-67
2022/10/01 04:15:44;;;;;;;3.78;3.28;;;;;;;;;;616206;233;27300;-68
2022/10/01 04:18:16;;;;;;;3.60;3.40;;;;;;;;;;616073;233;26585;-67
2022/10/01 04:20:42;;;;;;;3.97;3.67;;;;;;;;;;615687;233;26633;-67
2022/10/01 04:23:11;;;;;;;3.10;2.90;;;;;;;;;;615976;233;26667;-67
2022/10/01 04:25:40;;;;;;;3.30;3.00;;;;;;;;;;615976;233;26620;-68
2022/10/01 04:28:08;;;;;;;3.60;3.30;;;;;;;;;;615982;233;26817;-68
2022/10/01 04:30:37;;;;;;;3.50;3.30;;;;;;;;;;615817;233;26630;-68
2022/10/01 04:33:06;;;;;;;3.37;3.17;;;;;;;;;;615894;233;26818;-67
2022/10/01 04:35:36;;;;;;;3.75;3.28;;;;;;;;;;615835;233;26596;-67
2022/10/01 04:38:04;;;;;;;3.67;3.37;;;;;;;;;;615638;234;26588;-67
2022/10/01 04:40:34;;;;;;;3.65;3.37;;;;;;;;;;615580;234;26582;-67
2022/10/01 04:43:02;;;;;;;3.50;3.20;;;;;;;;;;615604;233;26569;-67
2022/10/01 04:45:31;;;;;;;3.22;3.03;;;;;;;;;;615671;233;26781;-67
2022/10/01 04:48:00;;;;;;;3.17;2.97;;;;;;;;;;615698;234;26537;-67
2022/10/01 04:50:29;;;;;;;3.62;3.33;;;;;;;;;;615635;228;26572;-67
2022/10/01 04:52:58;;;;;;;3.47;3.17;;;;;;;;;;615602;234;26771;-67
2022/10/01 04:55:27;;;;;;;3.22;3.03;;;;;;;;;;615581;234;26548;-67
2022/10/01 04:57:55;;;;;;;3.65;2.80;;;;;;;;;;615609;234;26802;-67
2022/10/01 05:00:25;;;;;;;3.47;3.28;;;;;;;;;;615608;233;26542;-67
2022/10/01 05:02:53;;;;;;;3.60;3.30;;;;;;;;;;615591;233;26852;-67
2022/10/01 05:05:22;;;;;;;3.20;3.00;;;;;;;;;;615600;228;26573;-67
2022/10/01 05:07:51;;;;;;;3.67;3.37;;;;;;;;;;615580;233;26532;-67
2022/10/01 05:10:20;;;;;;;3.33;3.12;;;;;;;;;;615558;234;26575;-67
2022/10/01 05:12:50;;;;;;;3.35;3.15;;;;;;;;;;617172;231;26598;-67
2022/10/01 05:15:17;;;;;;;3.58;3.28;;;;;;;;;;616688;233;26795;-67
2022/10/01 05:17:46;;;;;;;2.75;2.62;;;;;;;;;;616540;233;26572;-67
2022/10/01 05:20:15;;;;;;;3.30;3.10;;;;;;;;;;616395;232;26801;-67
2022/10/01 05:22:44;;;;;;;3.03;2.83;;;;;;;;;;616126;233;26587;-67
2022/10/01 05:25:13;;;;;;;3.50;3.20;;;;;;;;;;616228;233;26669;-67
2022/10/01 05:27:42;;;;;;;3.17;2.97;;;;;;;;;;616235;233;26810;-67
2022/10/01 05:30:11;;;;;;;3.03;2.83;;;;;;;;;;616002;233;26600;-67
2022/10/01 05:32:40;;;;;;;3.37;3.17;;;;;;;;;;615741;233;26646;-67
2022/10/01 05:35:08;;;;;;;3.50;3.20;;;;;;;;;;615725;233;26631;-67
2022/10/01 05:37:37;;;;;;;3.40;3.10;;;;;;;;;;615730;233;26622;-67
2022/10/01 05:40:06;;;;;;;2.70;2.60;;;;;;;;;;615802;233;26849;-67
2022/10/01 05:42:35;;;;;;;3.15;2.95;;;;;;;;;;615962;233;26594;-67
2022/10/01 05:45:04;;;;;;;2.95;2.75;;;;;;;;;;615938;233;26651;-67
2022/10/01 05:47:33;;;;;;;3.20;3.00;;;;;;;;;;615825;233;26620;-67
2022/10/01 05:50:02;;;;;;;2.87;2.67;;;;;;;;;;615623;229;26815;-67
2022/10/01 05:52:31;;;;;;;3.37;3.08;;;;;;;;;;615652;234;26560;-67
2022/10/01 05:55:00;;;;;;;3.42;3.15;;;;;;;;;;615635;234;26834;-67
2022/10/01 05:57:30;;;;;;;2.75;2.62;;;;;;;;;;615653;234;26567;-67
2022/10/01 05:59:57;;;;;;;3.28;3.08;;;;;;;;;;615515;229;26552;-67
2022/10/01 06:02:26;;;;;;;2.62;2.53;;;;;;;;;;615602;234;26583;-67
2022/10/01 06:04:55;;;;;;;2.78;2.67;;;;;;;;;;615638;234;26612;-67
2022/10/01 06:07:24;;;;;;;2.92;2.80;;;;;;;;;;615721;234;26819;-67
2022/10/01 06:09:53;;;;;;;3.05;2.85;;;;;;;;;;615684;234;26560;-67
2022/10/01 06:12:22;;;;;;;3.30;3.10;;;;;;;;;;615633;234;26792;-67
2022/10/01 06:14:50;;;;;;;3.03;2.83;;;;;;;;;;615646;234;26568;-67
2022/10/01 06:17:20;;;;;;;2.92;2.72;;;;;;;;;;615641;234;26826;-67
2022/10/01 06:19:50;;;;;;;2.95;2.75;;;;;;;;;;615652;234;26573;-67
2022/10/01 06:22:18;;;;;;;2.78;2.58;;;;;;;;;;615661;231;26572;-67
2022/10/01 06:24:47;;;;;;;2.95;2.75;;;;;;;;;;617293;233;26630;-70
2022/10/01 06:27:16;;;;;;;16.85;3.42;;;;;;;;;;616762;233;26643;-65
2022/10/01 06:29:44;;;;;;;2.97;2.78;;;;;;;;;;616454;233;26786;-66
2022/10/01 06:32:18;;;;;;;2.80;2.62;;;;;;;;;;616431;233;26580;-66
2022/10/01 06:34:42;;;;;;;3.10;2.90;;;;;;;;;;615844;233;27221;-66
2022/10/01 06:37:11;;;;;;;3.00;2.70;;;;;;;;;;616204;233;26567;-66
2022/10/01 06:39:40;;;;;;;3.10;2.75;;;;;;;;;;615749;231;26627;-66
2022/10/01 06:42:08;;;;;;;3.33;3.12;;;;;;;;;;619553;230;26573;-65
2022/10/01 06:44:38;;;;;;;2.72;2.53;;;;;;;;;;613724;233;26610;-66
2022/10/01 06:47:07;;;;;;;3.25;2.90;;;;;;;;;;612533;234;26779;-66
2022/10/01 06:49:36;;;;;;;2.87;2.67;;;;;;;;;;612524;234;26571;-66
2022/10/01 06:54:39;;;;;;;4.78;2.83;;;;;;;;;;615281;231;26565;-64
2022/10/01 06:57:08;;;;;;;3.03;2.78;;;;;;;;;;616674;230;26839;-64
2022/10/01 06:59:37;;;;;;;2.37;2.28;;;;;;;;;;618409;230;26564;-66
2022/10/01 07:02:06;;;;;;;3.25;2.75;;;;;;;;;;617364;231;26902;-66
2022/10/01 07:04:35;;;;;;;4.05;3.20;;;;;;;;;;616372;231;26594;-65
2022/10/01 07:07:04;;;;;;;4.18;2.75;;;;;;;;;;614813;231;26641;-65
2022/10/01 07:09:34;;;;;;;2.65;2.45;;;;;;;;;;616119;231;26606;-66
2022/10/01 07:12:03;;;;;;;3.28;2.97;;;;;;;;;;617952;231;26850;-66
2022/10/01 07:14:32;;;;;;;2.85;2.47;;;;;;;;;;614415;230;26601;-66
2022/10/01 07:17:00;;;;;;;3.72;3.00;;;;;;;;;;614150;231;26809;-66
2022/10/01 07:19:30;;;;;;;4.03;2.97;;;;;;;;;;616118;231;26562;-66
2022/10/01 07:21:58;;;;;;;4.50;2.75;;;;;;;;;;616176;231;26619;-64
2022/10/01 07:24:27;;;;;;;4.07;2.42;;;;;;;;;;617344;231;26912;-64
2022/10/01 07:26:56;;;;;;;4.75;2.75;;;;;;;;;;618066;231;26563;-64
2022/10/01 07:29:25;;;;;;;5.30;2.50;;;;;;;;;;616605;231;26812;-65
2022/10/01 07:31:58;;;;;;;3.00;2.70;;;;;;;;;;616918;231;26674;-65
2022/10/01 07:34:25;;;;;;;4.22;2.92;;;;;;;;;;615896;231;26879;-65
2022/10/01 07:36:55;;;;;;;2.60;2.50;;;;;;;;;;616256;231;26576;-65
2022/10/01 07:39:23;;;;;;;2.92;2.62;;;;;;;;;;617285;230;26950;-65
2022/10/01 07:41:52;;;;;;;3.22;2.50;;;;;;;;;;615846;230;26580;-65
2022/10/01 07:44:20;;;;;;;3.17;2.55;;;;;;;;;;618005;230;26638;-65
2022/10/01 07:46:49;;;;;;;2.78;2.40;;;;;;;;;;618221;230;26857;-65
2022/10/01 07:49:19;;;;;;;2.53;2.42;;;;;;;;;;616309;230;26615;-65
2022/10/01 07:51:47;;;;;;;2.60;2.40;;;;;;;;;;618398;230;26827;-65
2022/10/01 07:54:17;;;;;;;3.22;2.50;;;;;;;;;;616210;230;26631;-65
2022/10/01 07:56:45;;;;;;;3.62;2.50;;;;;;;;;;616311;227;26755;-65
2022/10/01 07:59:14;;;;;;;2.55;2.45;;;;;;;;;;614316;233;26587;-65
2022/10/01 08:01:42;;;;;;;2.87;2.67;;;;;;;;;;617830;230;26568;-65
2022/10/01 08:06:47;;;;;;;13.25;3.80;;;;;;;;;;616875;230;26798;-69
2022/10/01 08:09:15;;;;;;;5.03;3.05;;;;;;;;;;614009;231;26566;-69
2022/10/01 08:11:44;;;;;;;9.88;3.40;;;;;;;;;;615121;231;26933;-66
2022/10/01 08:14:12;;;;;;;57.33;12.55;;;;;;;;;;616216;231;26549;-68
2022/10/01 08:16:41;;;;;;;566.50;66.47;;;;;;;;;;614047;231;26563;-67
2022/10/01 08:19:11;;;;;;;1999.90;213.18;;;;;;;;;;616339;231;26798;-66
2022/10/01 08:21:39;;;;;;;105.72;26.23;;;;;;;;;;613923;234;26541;-66
2022/10/01 08:24:08;;;;;;;63.95;15.70;;;;;;;;;;614586;231;26597;-65
2022/10/01 08:26:37;;;;;;;45.12;12.73;;;;;;;;;;614324;234;26556;-64
2022/10/01 08:29:06;;;;;;;39.42;10.40;;;;;;;;;;615373;234;26593;-64
2022/10/01 08:31:35;;;;;;;34.60;10.50;;;;;;;;;;615159;234;27213;-64
2022/10/01 08:34:04;;;;;;;29.95;9.18;;;;;;;;;;615235;234;26645;-64
2022/10/01 08:36:34;;;;;;;20.48;6.87;;;;;;;;;;615267;234;26587;-64
2022/10/01 08:39:02;;;;;;;27.25;9.18;;;;;;;;;;615222;234;26572;-64
2022/10/01 08:41:31;;;;;;;27.00;8.65;;;;;;;;;;615274;234;26569;-64
2022/10/01 08:44:00;;;;;;;23.25;8.02;;;;;;;;;;615051;234;26840;-64
2022/10/01 08:46:28;;;;;;;20.90;7.60;;;;;;;;;;616537;231;26560;-64
2022/10/01 08:49:03;;;;;;;28.38;8.32;;;;;;;;;;616874;233;26572;-64
2022/10/01 08:51:38;;;;;;;22.13;7.43;;;;;;;;;;616055;233;26619;-64
2022/10/01 08:54:07;;;;;;;16.85;6.87;;;;;;;;;;616515;232;26939;-64
2022/10/01 08:56:37;;;;;;;14.63;6.95;;;;;;;;;;615633;233;26569;-64
2022/10/01 08:59:08;;;;;;;13.85;5.82;;;;;;;;;;616388;233;26541;-64
2022/10/01 09:01:37;;;;;;;11.18;5.72;;;;;;;;;;615442;231;26532;-63
2022/10/01 09:04:05;;;;;;;7.40;3.97;;;;;;;;;;614749;230;26615;-64
2022/10/01 09:06:36;;;;;;;10.57;4.30;;;;;;;;;;616464;230;26529;-64
2022/10/01 09:09:05;;;;;;;7.18;3.90;;;;;;;;;;615541;231;26775;-64
2022/10/01 09:11:34;;;;;;;6.62;3.47;;;;;;;;;;616480;230;26548;-64
2022/10/01 09:14:05;;;;;;;9.77;4.60;;;;;;;;;;615486;231;26613;-64
2022/10/01 09:16:34;;;;;;;5.12;3.40;;;;;;;;;;615759;230;26569;-64
2022/10/01 09:19:05;;;;;;;7.22;3.40;;;;;;;;;;614799;231;26592;-64
2022/10/01 09:21:40;;;;;;;5.90;3.35;;;;;;;;;;614839;231;26588;-64
2022/10/01 09:24:10;;;;;;;4.22;3.22;;;;;;;;;;613957;231;26598;-64
2022/10/01 09:26:38;;;;;;;3.95;2.62;;;;;;;;;;615160;231;26572;-64
2022/10/01 09:29:07;;;;;;;3.67;2.80;;;;;;;;;;614007;231;26563;-64
2022/10/01 09:31:36;;;;;;;3.15;2.95;;;;;;;;;;615149;231;27212;-64
2022/10/01 09:34:08;;;;;;;3.72;3.10;;;;;;;;;;615693;231;26560;-64
2022/10/01 09:36:37;;;;;;;5.07;3.00;;;;;;;;;;615463;230;26585;-64
2022/10/01 09:39:09;;;;;;;5.30;2.87;;;;;;;;;;614335;231;26903;-63
2022/10/01 09:41:38;;;;;;;5.05;3.50;;;;;;;;;;615772;231;26610;-68
2022/10/01 09:44:07;;;;;;;8.63;3.50;;;;;;;;;;614221;231;26774;-65
2022/10/01 09:46:36;;;;;;;24.90;10.30;;;;;;;;;;618059;231;26563;-66
2022/10/01 09:49:07;;;;;;;28.90;9.60;;;;;;;;;;618429;231;26613;-66
2022/10/01 09:51:36;;;;;;;30.55;9.98;;;;;;;;;;621547;231;26825;-66
2022/10/01 09:54:16;;;;;;;23.40;10.43;;;;;;;;;;623138;226;26584;-66
2022/10/01 09:56:55;;;;;;;16.25;8.15;;;;;;;;;;621994;231;26596;-66
2022/10/01 09:59:26;;;;;;;19.73;9.05;;;;;;;;;;622800;229;26820;-66
2022/10/01 10:01:55;;;;;;;19.25;9.10;;;;;;;;;;618355;231;26769;-66
2022/10/01 10:04:24;;;;;;;25.62;10.15;;;;;;;;;;615902;231;26590;-66
2022/10/01 10:06:59;;;;;;;20.62;9.82;;;;;;;;;;615097;233;26558;-66
2022/10/01 10:09:27;;;;;;;16.17;8.38;;;;;;;;;;617906;230;26823;-66
2022/10/01 10:11:57;;;;;;;12.88;7.62;;;;;;;;;;615541;233;26567;-66
2022/10/01 10:14:40;;;;;;;11.77;7.25;;;;;;;;;;614838;230;27154;-65
2022/10/01 10:17:11;;;;;;;15.85;8.05;;;;;;;;;;614272;233;26612;-65
2022/10/01 10:19:40;;;;;;;17.58;7.78;;;;;;;;;;614372;231;26572;-65
2022/10/01 10:22:08;;;;;;;14.20;7.25;;;;;;;;;;615016;233;26843;-65
2022/10/01 10:24:38;;;;;;;17.83;7.97;;;;;;;;;;613782;233;26619;-65
2022/10/01 10:27:07;;;;;;;12.07;6.85;;;;;;;;;;614303;233;26652;-66
2022/10/01 10:29:36;;;;;;;11.00;6.78;;;;;;;;;;614178;233;26609;-65
2022/10/01 10:32:11;;;;;;;15.68;7.32;;;;;;;;;;615533;228;26852;-66
2022/10/01 10:34:40;;;;;;;12.10;6.30;;;;;;;;;;621756;231;26832;-66
2022/10/01 10:37:12;;;;;;;14.93;6.65;;;;;;;;;;619200;231;26623;-65
2022/10/01 10:39:43;;;;;;;13.27;7.03;;;;;;;;;;618725;231;26587;-65
2022/10/01 10:42:14;;;;;;;10.90;6.47;;;;;;;;;;613868;231;26563;-65
2022/10/01 10:44:42;;;;;;;10.52;6.10;;;;;;;;;;614436;231;26853;-68
2022/10/01 10:47:13;;;;;;;22.65;7.55;;;;;;;;;;612694;228;26572;-66
2022/10/01 10:49:43;;;;;;;17.55;7.60;;;;;;;;;;614780;234;26569;-64
2022/10/01 10:52:19;;;;;;;10.77;5.87;;;;;;;;;;616068;231;26585;-64
2022/10/01 10:54:47;;;;;;;8.70;5.65;;;;;;;;;;622383;231;26612;-64
2022/10/01 10:57:20;;;;;;;5.15;4.65;;;;;;;;;;617690;231;26603;-64
2022/10/01 11:00:01;;;;;;;7.45;5.78;;;;;;;;;;615733;230;26576;-64
2022/10/01 11:02:29;;;;;;;9.15;5.28;;;;;;;;;;617692;231;26646;-64
2022/10/01 11:05:00;;;;;;;9.05;5.68;;;;;;;;;;614909;231;26791;-64
2022/10/01 11:07:28;;;;;;;7.72;4.55;;;;;;;;;;616866;231;26611;-64
2022/10/01 11:10:08;;;;;;;9.63;5.53;;;;;;;;;;615355;230;26651;-67
2022/10/01 11:12:39;;;;;;;9.18;5.50;;;;;;;;;;621091;230;26590;-64
2022/10/01 11:15:10;;;;;;;8.15;6.07;;;;;;;;;;622844;230;26613;-64
2022/10/01 11:17:41;;;;;;;5.57;4.35;;;;;;;;;;615218;230;26626;-64
2022/10/01 11:20:10;;;;;;;6.70;5.07;;;;;;;;;;616192;231;26900;-65
2022/10/01 11:22:54;;;;;;;6.53;5.45;;;;;;;;;;619888;230;26627;-64
2022/10/01 11:25:27;;;;;;;7.95;6.20;;;;;;;;;;615676;230;26594;-64
2022/10/01 11:28:11;;;;;;;5.32;4.82;;;;;;;;;;617744;230;27268;-62
2022/10/01 11:30:40;;;;;;;6.15;5.28;;;;;;;;;;612061;231;26544;-64
2022/10/01 11:33:10;;;;;;;6.62;3.95;;;;;;;;;;616710;230;26633;-64
2022/10/01 11:35:41;;;;;;;5.47;4.97;;;;;;;;;;617246;230;26570;-64
2022/10/01 11:38:13;;;;;;;8.85;5.60;;;;;;;;;;615129;231;26820;-64
2022/10/01 11:40:42;;;;;;;5.68;4.57;;;;;;;;;;618371;231;26575;-64
2022/10/01 11:43:29;;;;;;;7.57;4.90;;;;;;;;;;613194;231;26593;-64
2022/10/01 11:45:58;;;;;;;6.78;5.85;;;;;;;;;;615291;231;26561;-64
2022/10/01 11:48:28;;;;;;;5.03;4.30;;;;;;;;;;621044;231;26657;-64
2022/10/01 11:50:57;;;;;;;4.78;4.20;;;;;;;;;;618418;231;26561;-64
2022/10/01 11:53:29;;;;;;;6.05;5.45;;;;;;;;;;616683;231;26600;-64
2022/10/01 11:58:49;;;;;;;7.18;4.18;;;;;;;;;;613630;231;26553;-64
2022/10/01 12:01:26;;;;;;;5.30;4.72;;;;;;;;;;613365;234;26524;-65
2022/10/01 12:03:56;;;;;;;5.70;4.20;;;;;;;;;;615243;234;26585;-65
2022/10/01 12:06:27;;;;;;;5.30;4.37;;;;;;;;;;613285;234;26537;-65
2022/10/01 12:08:55;;;;;;;5.47;4.95;;;;;;;;;;614529;233;26570;-65
2022/10/01 12:11:27;;;;;;;12.65;5.05;;;;;;;;;;614538;234;26790;-65
2022/10/01 12:13:55;;;;;;;5.37;3.95;;;;;;;;;;614962;231;26564;-68
2022/10/01 12:16:23;;;;;;;6.72;3.70;;;;;;;;;;619041;231;26616;-65
2022/10/01 12:18:56;;;;;;;8.00;4.80;;;;;;;;;;613398;234;26570;-65
2022/10/01 12:21:25;;;;;;;5.95;4.70;;;;;;;;;;614478;232;26570;-65
2022/10/01 12:23:54;;;;;;;5.12;4.30;;;;;;;;;;614547;231;26647;-65
2022/10/01 12:26:23;;;;;;;6.30;4.25;;;;;;;;;;617519;231;26605;-65
2022/10/01 12:28:53;;;;;;;5.50;5.00;;;;;;;;;;617707;231;26571;-65
2022/10/01 12:31:31;;;;;;;5.95;4.70;;;;;;;;;;618179;231;26842;-65
2022/10/01 12:34:06;;;;;;;5.57;4.90;;;;;;;;;;614098;231;26634;-65
2022/10/01 12:36:36;;;;;;;4.53;4.10;;;;;;;;;;618721;231;26657;-65
2022/10/01 12:39:06;;;;;;;5.43;4.12;;;;;;;;;;616987;231;27220;-64
2022/10/01 12:41:41;;;;;;;5.65;5.05;;;;;;;;;;617598;231;26812;-65
2022/10/01 12:44:16;;;;;;;5.32;4.20;;;;;;;;;;623530;230;26596;-64
2022/10/01 12:46:49;;;;;;;5.18;4.68;;;;;;;;;;615781;231;26570;-65
2022/10/01 12:49:22;;;;;;;5.20;4.25;;;;;;;;;;619258;230;26805;-65
2022/10/01 12:51:51;;;;;;;4.35;3.47;;;;;;;;;;618230;230;26740;-65
2022/10/01 12:54:23;;;;;;;5.18;4.68;;;;;;;;;;615281;231;26638;-65
2022/10/01 12:57:12;;;;;;;4.82;4.32;;;;;;;;;;614025;233;26951;-65
2022/10/01 12:59:58;;;;;;;4.70;4.28;;;;;;;;;;617735;231;26628;-65
2022/10/01 13:02:26;;;;;;;4.87;3.75;;;;;;;;;;613239;231;26615;-66
2022/10/01 13:04:57;;;;;;;3.87;3.47;;;;;;;;;;621677;231;26665;-65
2022/10/01 13:07:26;;;;;;;5.12;4.00;;;;;;;;;;615912;231;26858;-65
2022/10/01 13:09:56;;;;;;;5.22;4.40;;;;;;;;;;619628;231;26604;-66
2022/10/01 13:12:26;;;;;;;5.18;3.55;;;;;;;;;;619142;231;26806;-65
2022/10/01 13:14:54;;;;;;;7.35;4.55;;;;;;;;;;613203;234;26583;-65
2022/10/01 13:17:23;;;;;;;4.35;3.87;;;;;;;;;;613669;233;26560;-65
2022/10/01 13:20:07;;;;;;;5.60;3.50;;;;;;;;;;614621;234;26831;-65
2022/10/01 13:22:36;;;;;;;3.70;3.10;;;;;;;;;;613035;234;26833;-65
2022/10/01 13:25:08;;;;;;;3.97;3.45;;;;;;;;;;614941;234;26588;-65
2022/10/01 13:27:38;;;;;;;3.95;3.30;;;;;;;;;;618765;231;26874;-65
2022/10/01 13:30:17;;;;;;;5.07;3.95;;;;;;;;;;622075;231;26586;-66
2022/10/01 13:32:51;;;;;;;4.70;3.67;;;;;;;;;;614378;232;26611;-65
2022/10/01 13:35:23;;;;;;;6.37;4.07;;;;;;;;;;614971;232;26624;-65
2022/10/01 13:37:52;;;;;;;6.12;3.55;;;;;;;;;;615669;227;26583;-66
2022/10/01 13:40:27;;;;;;;5.50;3.80;;;;;;;;;;616492;227;26555;-66
2022/10/01 13:42:56;;;;;;;3.53;2.95;;;;;;;;;;614751;233;26551;-66
2022/10/01 13:45:28;;;;;;;4.22;3.83;;;;;;;;;;615241;233;26584;-65
2022/10/01 13:48:02;;;;;;;12.93;3.87;;;;;;;;;;619109;231;26608;-65
2022/10/01 13:50:31;;;;;;;3.53;3.22;;;;;;;;;;614147;233;26859;-66
2022/10/01 13:53:03;;;;;;;5.68;3.95;;;;;;;;;;618843;231;26545;-65
2022/10/01 13:55:31;;;;;;;19.45;9.15;;;;;;;;;;615786;231;26558;-67
2022/10/01 13:58:00;;;;;;;16.95;9.27;;;;;;;;;;615911;231;26592;-65
2022/10/01 14:00:29;;;;;;;15.10;8.05;;;;;;;;;;619149;231;26839;-66
2022/10/01 14:03:01;;;;;;;20.50;8.98;;;;;;;;;;616653;231;26563;-66
2022/10/01 14:05:39;;;;;;;10.27;6.57;;;;;;;;;;615469;231;26786;-66
2022/10/01 14:08:11;;;;;;;9.07;5.37;;;;;;;;;;620768;231;26587;-66
2022/10/01 14:16:04;;;;;;;8.05;4.70;;;;;;;;;;613602;231;26853;-66
2022/10/01 14:18:33;;;;;;;9.68;5.15;;;;;;;;;;614567;231;26590;-65
2022/10/01 14:21:05;;;;;;;6.82;4.68;;;;;;;;;;616757;231;26644;-66
2022/10/01 14:23:34;;;;;;;13.98;5.05;;;;;;;;;;612200;235;26584;-65
2022/10/01 14:26:19;;;;;;;7.00;5.50;;;;;;;;;;614887;234;26573;-65
2022/10/01 14:28:49;;;;;;;11.85;5.50;;;;;;;;;;616375;231;27378;-66
2022/10/01 14:31:33;;;;;;;8.30;5.12;;;;;;;;;;613875;234;26815;-66
2022/10/01 14:34:04;;;;;;;4.95;4.45;;;;;;;;;;612368;231;26633;-66
2022/10/01 14:36:33;;;;;;;8.07;4.75;;;;;;;;;;621449;231;26620;-66
2022/10/01 14:39:02;;;;;;;7.85;5.35;;;;;;;;;;622456;231;26814;-66
2022/10/01 14:41:32;;;;;;;10.15;5.40;;;;;;;;;;615118;231;26620;-66
2022/10/01 14:44:00;;;;;;;6.07;4.80;;;;;;;;;;616122;231;26820;-66
2022/10/01 14:46:28;;;;;;;5.32;4.82;;;;;;;;;;620415;231;26564;-66
2022/10/01 14:48:58;;;;;;;4.10;3.70;;;;;;;;;;615253;233;27272;-66
2022/10/01 14:51:26;;;;;;;4.68;4.10;;;;;;;;;;618822;231;26557;-66
2022/10/01 14:53:55;;;;;;;7.20;4.28;;;;;;;;;;623675;230;26810;-65
2022/10/01 14:56:24;;;;;;;7.75;4.87;;;;;;;;;;613674;233;26806;-66
2022/10/01 14:58:54;;;;;;;5.50;4.60;;;;;;;;;;618552;231;26560;-66
2022/10/01 15:01:23;;;;;;;4.85;4.32;;;;;;;;;;619658;231;26661;-66
2022/10/01 15:03:52;;;;;;;4.75;3.87;;;;;;;;;;621227;230;26598;-66
2022/10/01 15:06:20;;;;;;;5.95;4.07;;;;;;;;;;615242;231;26537;-66
2022/10/01 15:08:49;;;;;;;4.72;3.80;;;;;;;;;;616331;230;26835;-66
2022/10/01 15:11:19;;;;;;;3.30;2.55;;;;;;;;;;614604;233;26632;-66